Izumo Princess — SXMB — position and weather

sailwx.info

Track history (hours):
 
Tides and Currents Weather Stations Pressure Air Temp Water Temp Dewpoint Dewpoint Depression Visibility Wind Speed Wind Dir Waves Ship Positions

Izumo Princess

Last reported at 2016-Aug-23 14:33 UTC. Time now 2016-Aug-24 16:13 UTC.
Position N 36°39' E 035°51'.

Length 229 m; draft 8 m.

Type: Tanker. MMSI: 240611000.

Date/timePositionNaut miles runAvg speedWind from/ knotsBaromVisibWave heightAir tempDewpointWater temp
2016-Aug-23 14:33N 36°39' E 035°51'3012.3
2016-Aug-23 12:04N 36°19' E 035°21'612.4
2016-Aug-23 11:33N 36°17' E 035°14'1211.9
2016-Aug-23 10:33N 36°14' E 034°60'  
2016-Aug-20 16:33N 34°55' E 022°19'29 7.4
2016-Aug-20 12:33N 34°59' E 021°43'15511.8
2016-Aug-19 23:23N 35°22' E 018°36'1011.6
2016-Aug-19 22:33N 35°24' E 018°24'6612.0
2016-Aug-19 17:03N 35°34' E 017°04'611.7
2016-Aug-19 16:33N 35°35' E 016°57'1211.9
2016-Aug-19 15:33N 35°36' E 016°42'1212.2
2016-Aug-19 14:33N 35°38' E 016°28'3912.0
2016-Aug-19 11:20N 35°44' E 015°40'912.1
2016-Aug-19 10:33N 35°46' E 015°29'1212.0
2016-Aug-19 09:33N 35°47' E 015°14'1212.2
2016-Aug-19 08:33N 35°49' E 014°60'4 4.2
2016-Aug-19 07:31N 35°50' E 014°54'0 0.0
2016-Aug-19 06:31N 35°50' E 014°54'0 0.0
2016-Aug-19 05:31N 35°50' E 014°54'0 0.0
2016-Aug-19 04:28N 35°50' E 014°54'0 0.0
2016-Aug-19 03:31N 35°50' E 014°54'0 0.0
2016-Aug-19 01:10N 35°50' E 014°54'0 0.0
2016-Aug-19 00:25N 35°50' E 014°54'0 0.0
2016-Aug-18 23:31N 35°50' E 014°54'0 0.0
2016-Aug-18 22:31N 35°50' E 014°54'0 0.0
2016-Aug-18 21:31N 35°50' E 014°54'0 0.0
2016-Aug-18 20:13N 35°50' E 014°54'0 0.0
2016-Aug-18 19:31N 35°50' E 014°54'0 0.0
2016-Aug-18 18:31N 35°50' E 014°54'0 0.0
2016-Aug-18 17:25N 35°50' E 014°54'0 0.1
2016-Aug-18 16:31N 35°50' E 014°54'0 0.0
2016-Aug-18 15:31N 35°50' E 014°54'0 0.1
2016-Aug-18 14:31N 35°50' E 014°54'0 0.0
2016-Aug-18 13:28N 35°50' E 014°54'0 0.0
2016-Aug-18 12:16N 35°50' E 014°54'0 0.0
2016-Aug-18 11:31N 35°50' E 014°54'0 0.0
2016-Aug-18 10:25N 35°50' E 014°54'0 0.0
2016-Aug-18 09:28N 35°50' E 014°54'0 0.0
2016-Aug-18 08:31N 35°50' E 014°54'0 0.0
2016-Aug-18 07:25N 35°50' E 014°54'0 0.0
2016-Aug-18 06:28N 35°50' E 014°54'0 0.0
2016-Aug-18 05:31N 35°50' E 014°54'0 0.0
2016-Aug-18 04:25N 35°50' E 014°54'0 0.0
2016-Aug-18 01:28N 35°50' E 014°54'0 0.0
2016-Aug-18 00:28N 35°50' E 014°54'0 0.0
2016-Aug-17 23:31N 35°50' E 014°54'0 0.1
2016-Aug-17 22:31N 35°50' E 014°54'0 0.0
2016-Aug-17 21:31N 35°50' E 014°54'0 0.0
2016-Aug-17 20:31N 35°50' E 014°54'0 0.0
2016-Aug-17 19:31N 35°50' E 014°54'0 0.0
2016-Aug-17 18:31N 35°50' E 014°54'0 0.0
2016-Aug-17 17:31N 35°50' E 014°54'0 0.1
2016-Aug-17 16:31N 35°50' E 014°54'0 0.0
2016-Aug-17 15:31N 35°50' E 014°54'0 0.0
2016-Aug-17 14:31N 35°50' E 014°54'0 0.0
2016-Aug-17 13:31N 35°50' E 014°54'0 0.0
2016-Aug-17 12:22N 35°50' E 014°54'0 0.0
2016-Aug-17 11:31N 35°50' E 014°54'0 0.0
2016-Aug-17 10:28N 35°50' E 014°54'0 0.0
2016-Aug-17 09:31N 35°50' E 014°54'0 0.0
2016-Aug-17 08:31N 35°50' E 014°54'0 0.0
2016-Aug-17 07:28N 35°50' E 014°54'0 0.0
2016-Aug-17 06:31N 35°50' E 014°54'0 0.0
2016-Aug-17 05:31N 35°50' E 014°54'0 0.0
2016-Aug-17 04:28N 35°50' E 014°54'0 0.0
2016-Aug-17 03:31N 35°50' E 014°54'0 0.0
2016-Aug-17 02:33N 35°50' E 014°54'0 0.0
2016-Aug-17 01:33N 35°50' E 014°54'3 3.1
2016-Aug-17 00:34N 35°48' E 014°51'1111.2
2016-Aug-16 23:33N 35°50' E 014°38'2 1.6
2016-Aug-16 22:32N 35°50' E 014°36'0 0.1
2016-Aug-16 21:32N 35°50' E 014°36'0 0.1
2016-Aug-16 20:32N 35°50' E 014°36'0 0.0
2016-Aug-16 19:32N 35°50' E 014°36'0 0.0
2016-Aug-16 18:32N 35°50' E 014°36'0 0.0
2016-Aug-16 17:32N 35°50' E 014°36'0 0.0
2016-Aug-16 16:32N 35°50' E 014°36'0 0.0
2016-Aug-16 15:32N 35°50' E 014°36'2 2.4
2016-Aug-16 14:33N 35°49' E 014°39'6 6.3
2016-Aug-16 13:33N 35°54' E 014°43'1211.6
2016-Aug-16 12:33N 36°03' E 014°34'1211.9
2016-Aug-16 11:33N 36°12' E 014°24'1211.8
2016-Aug-16 10:33N 36°19' E 014°13'1212.2
2016-Aug-16 09:33N 36°25' E 013°60'1212.4
2016-Aug-16 08:33N 36°31' E 013°46'1212.2
2016-Aug-16 07:33N 36°37' E 013°33'3611.9
2016-Aug-16 04:33N 36°55' E 012°54'1611.5
2016-Aug-16 03:12N 37°02' E 012°37'4311.6
2016-Aug-15 23:32N 37°27' E 011°54'1111.6
2016-Aug-15 22:34N 37°39' E 011°53'1411.9
2016-Aug-15 21:25N 37°52' E 011°53'38 9.7
2016-Aug-15 17:31N 38°20' E 012°26'1111.4
2016-Aug-15 16:32N 38°24' E 012°39'1111.4
2016-Aug-15 15:33N 38°26' E 012°53'1111.4
2016-Aug-15 14:34N 38°27' E 013°08'1211.6
2016-Aug-15 13:33N 38°27' E 013°22'1211.6
2016-Aug-15 12:34N 38°25' E 013°37'1211.5
2016-Aug-15 11:33N 38°24' E 013°52'3411.2
2016-Aug-15 08:34N 38°19' E 014°34'1111.2
2016-Aug-15 07:34N 38°18' E 014°48'1111.4
2016-Aug-15 06:34N 38°18' E 015°03'12 5.8
2016-Aug-15 04:34N 38°13' E 015°16'0 0.0
2016-Aug-15 03:34N 38°13' E 015°16'0 0.0
2016-Aug-15 02:34N 38°13' E 015°16'0 0.0
2016-Aug-15 01:34N 38°13' E 015°16'0 0.0
2016-Aug-15 00:34N 38°13' E 015°16'0 0.0
2016-Aug-14 23:34N 38°13' E 015°16'0 0.0
2016-Aug-14 22:34N 38°13' E 015°16'0 0.0
2016-Aug-14 21:34N 38°13' E 015°16'0 0.0
2016-Aug-14 20:34N 38°13' E 015°16'0 0.0
2016-Aug-14 19:34N 38°13' E 015°16'0 0.0
2016-Aug-14 18:34N 38°13' E 015°16'0 0.0
2016-Aug-14 17:34N 38°13' E 015°16'0 0.0
2016-Aug-14 16:34N 38°13' E 015°16'0 0.0
2016-Aug-14 15:34N 38°13' E 015°16'0 0.0
2016-Aug-14 14:34N 38°13' E 015°16'0 0.0
2016-Aug-14 13:34N 38°13' E 015°16'0 0.0
2016-Aug-14 12:34N 38°13' E 015°16'0 0.0
2016-Aug-14 11:34N 38°13' E 015°16'0 0.0
2016-Aug-14 10:34N 38°13' E 015°16'0 0.0
2016-Aug-14 09:34N 38°13' E 015°16'0 0.0
2016-Aug-14 08:33N 38°13' E 015°16'0 0.0
2016-Aug-14 07:34N 38°13' E 015°16'0 0.0
2016-Aug-14 06:34N 38°13' E 015°16'0 0.0
2016-Aug-14 04:34N 38°13' E 015°16'0 0.0
2016-Aug-14 03:34N 38°13' E 015°16'0 0.0
2016-Aug-14 02:34N 38°13' E 015°16'0 0.0
2016-Aug-14 01:33N 38°13' E 015°16'0 0.0
2016-Aug-14 00:34N 38°13' E 015°16'0 0.0
2016-Aug-13 23:33N 38°13' E 015°16'0 0.0
2016-Aug-13 22:34N 38°13' E 015°16'0 0.0
2016-Aug-13 21:34N 38°13' E 015°16'0 0.0
2016-Aug-13 20:34N 38°13' E 015°16'0 0.0
2016-Aug-13 19:34N 38°13' E 015°16'0 0.0
2016-Aug-13 18:34N 38°13' E 015°16'0 0.0
2016-Aug-13 17:34N 38°13' E 015°16'0 0.0
2016-Aug-13 16:34N 38°13' E 015°16'0 0.0
2016-Aug-13 15:34N 38°13' E 015°16'0 0.0
2016-Aug-13 14:34N 38°13' E 015°16'  
Track history (hours):
 
Tides and Currents Weather Stations Pressure Air Temp Water Temp Dewpoint Dewpoint Depression Visibility Wind Speed Wind Dir Waves Ship Positions

Izumo Princess

Last reported at 2016-Aug-23 14:33 UTC. Time now 2016-Aug-24 16:13 UTC.
Position N 36°39' E 035°51'.

Length 229 m; draft 8 m.

Type: Tanker. MMSI: 240611000.

Date/timePositionNaut miles runAvg speedWind from/ knotsBaromVisibWave heightAir tempDewpointWater temp
2016-Aug-23 14:33N 36°39' E 035°51'3012.3
2016-Aug-23 12:04N 36°19' E 035°21'612.4
2016-Aug-23 11:33N 36°17' E 035°14'1211.9
2016-Aug-23 10:33N 36°14' E 034°60'  
2016-Aug-20 16:33N 34°55' E 022°19'29 7.4
2016-Aug-20 12:33N 34°59' E 021°43'15511.8
2016-Aug-19 23:23N 35°22' E 018°36'1011.6
2016-Aug-19 22:33N 35°24' E 018°24'6612.0
2016-Aug-19 17:03N 35°34' E 017°04'611.7
2016-Aug-19 16:33N 35°35' E 016°57'1211.9
2016-Aug-19 15:33N 35°36' E 016°42'1212.2
2016-Aug-19 14:33N 35°38' E 016°28'3912.0
2016-Aug-19 11:20N 35°44' E 015°40'912.1
2016-Aug-19 10:33N 35°46' E 015°29'1212.0
2016-Aug-19 09:33N 35°47' E 015°14'1212.2
2016-Aug-19 08:33N 35°49' E 014°60'4 4.2
2016-Aug-19 07:31N 35°50' E 014°54'0 0.0
2016-Aug-19 06:31N 35°50' E 014°54'0 0.0
2016-Aug-19 05:31N 35°50' E 014°54'0 0.0
2016-Aug-19 04:28N 35°50' E 014°54'0 0.0
2016-Aug-19 03:31N 35°50' E 014°54'0 0.0
2016-Aug-19 01:10N 35°50' E 014°54'0 0.0
2016-Aug-19 00:25N 35°50' E 014°54'0 0.0
2016-Aug-18 23:31N 35°50' E 014°54'0 0.0
2016-Aug-18 22:31N 35°50' E 014°54'0 0.0
2016-Aug-18 21:31N 35°50' E 014°54'0 0.0
2016-Aug-18 20:13N 35°50' E 014°54'0 0.0
2016-Aug-18 19:31N 35°50' E 014°54'0 0.0
2016-Aug-18 18:31N 35°50' E 014°54'0 0.0
2016-Aug-18 17:25N 35°50' E 014°54'0 0.1
2016-Aug-18 16:31N 35°50' E 014°54'0 0.0
2016-Aug-18 15:31N 35°50' E 014°54'0 0.1
2016-Aug-18 14:31N 35°50' E 014°54'0 0.0
2016-Aug-18 13:28N 35°50' E 014°54'0 0.0
2016-Aug-18 12:16N 35°50' E 014°54'0 0.0
2016-Aug-18 11:31N 35°50' E 014°54'0 0.0
2016-Aug-18 10:25N 35°50' E 014°54'0 0.0
2016-Aug-18 09:28N 35°50' E 014°54'0 0.0
2016-Aug-18 08:31N 35°50' E 014°54'0 0.0
2016-Aug-18 07:25N 35°50' E 014°54'0 0.0
2016-Aug-18 06:28N 35°50' E 014°54'0 0.0
2016-Aug-18 05:31N 35°50' E 014°54'0 0.0
2016-Aug-18 04:25N 35°50' E 014°54'0 0.0
2016-Aug-18 01:28N 35°50' E 014°54'0 0.0
2016-Aug-18 00:28N 35°50' E 014°54'0 0.0
2016-Aug-17 23:31N 35°50' E 014°54'0 0.1
2016-Aug-17 22:31N 35°50' E 014°54'0 0.0
2016-Aug-17 21:31N 35°50' E 014°54'0 0.0
2016-Aug-17 20:31N 35°50' E 014°54'0 0.0
2016-Aug-17 19:31N 35°50' E 014°54'0 0.0
2016-Aug-17 18:31N 35°50' E 014°54'0 0.0
2016-Aug-17 17:31N 35°50' E 014°54'0 0.1
2016-Aug-17 16:31N 35°50' E 014°54'0 0.0
2016-Aug-17 15:31N 35°50' E 014°54'0 0.0
2016-Aug-17 14:31N 35°50' E 014°54'0 0.0
2016-Aug-17 13:31N 35°50' E 014°54'0 0.0
2016-Aug-17 12:22N 35°50' E 014°54'0 0.0
2016-Aug-17 11:31N 35°50' E 014°54'0 0.0
2016-Aug-17 10:28N 35°50' E 014°54'0 0.0
2016-Aug-17 09:31N 35°50' E 014°54'0 0.0
2016-Aug-17 08:31N 35°50' E 014°54'0 0.0
2016-Aug-17 07:28N 35°50' E 014°54'0 0.0
2016-Aug-17 06:31N 35°50' E 014°54'0 0.0
2016-Aug-17 05:31N 35°50' E 014°54'0 0.0
2016-Aug-17 04:28N 35°50' E 014°54'0 0.0
2016-Aug-17 03:31N 35°50' E 014°54'0 0.0
2016-Aug-17 02:33N 35°50' E 014°54'0 0.0
2016-Aug-17 01:33N 35°50' E 014°54'3 3.1
2016-Aug-17 00:34N 35°48' E 014°51'1111.2
2016-Aug-16 23:33N 35°50' E 014°38'2 1.6
2016-Aug-16 22:32N 35°50' E 014°36'0 0.1
2016-Aug-16 21:32N 35°50' E 014°36'0 0.1
2016-Aug-16 20:32N 35°50' E 014°36'0 0.0
2016-Aug-16 19:32N 35°50' E 014°36'0 0.0
2016-Aug-16 18:32N 35°50' E 014°36'0 0.0
2016-Aug-16 17:32N 35°50' E 014°36'0 0.0
2016-Aug-16 16:32N 35°50' E 014°36'0 0.0
2016-Aug-16 15:32N 35°50' E 014°36'2 2.4
2016-Aug-16 14:33N 35°49' E 014°39'6 6.3
2016-Aug-16 13:33N 35°54' E 014°43'1211.6
2016-Aug-16 12:33N 36°03' E 014°34'1211.9
2016-Aug-16 11:33N 36°12' E 014°24'1211.8
2016-Aug-16 10:33N 36°19' E 014°13'1212.2
2016-Aug-16 09:33N 36°25' E 013°60'1212.4
2016-Aug-16 08:33N 36°31' E 013°46'1212.2
2016-Aug-16 07:33N 36°37' E 013°33'3611.9
2016-Aug-16 04:33N 36°55' E 012°54'1611.5
2016-Aug-16 03:12N 37°02' E 012°37'4311.6
2016-Aug-15 23:32N 37°27' E 011°54'1111.6
2016-Aug-15 22:34N 37°39' E 011°53'1411.9
2016-Aug-15 21:25N 37°52' E 011°53'38 9.7
2016-Aug-15 17:31N 38°20' E 012°26'1111.4
2016-Aug-15 16:32N 38°24' E 012°39'1111.4
2016-Aug-15 15:33N 38°26' E 012°53'1111.4
2016-Aug-15 14:34N 38°27' E 013°08'1211.6
2016-Aug-15 13:33N 38°27' E 013°22'1211.6
2016-Aug-15 12:34N 38°25' E 013°37'1211.5
2016-Aug-15 11:33N 38°24' E 013°52'3411.2
2016-Aug-15 08:34N 38°19' E 014°34'1111.2
2016-Aug-15 07:34N 38°18' E 014°48'1111.4
2016-Aug-15 06:34N 38°18' E 015°03'12 5.8
2016-Aug-15 04:34N 38°13' E 015°16'0 0.0
2016-Aug-15 03:34N 38°13' E 015°16'0 0.0
2016-Aug-15 02:34N 38°13' E 015°16'0 0.0
2016-Aug-15 01:34N 38°13' E 015°16'0 0.0
2016-Aug-15 00:34N 38°13' E 015°16'0 0.0
2016-Aug-14 23:34N 38°13' E 015°16'0 0.0
2016-Aug-14 22:34N 38°13' E 015°16'0 0.0
2016-Aug-14 21:34N 38°13' E 015°16'0 0.0
2016-Aug-14 20:34N 38°13' E 015°16'0 0.0
2016-Aug-14 19:34N 38°13' E 015°16'0 0.0
2016-Aug-14 18:34N 38°13' E 015°16'0 0.0
2016-Aug-14 17:34N 38°13' E 015°16'0 0.0
2016-Aug-14 16:34N 38°13' E 015°16'0 0.0
2016-Aug-14 15:34N 38°13' E 015°16'0 0.0
2016-Aug-14 14:34N 38°13' E 015°16'0 0.0
2016-Aug-14 13:34N 38°13' E 015°16'0 0.0
2016-Aug-14 12:34N 38°13' E 015°16'0 0.0
2016-Aug-14 11:34N 38°13' E 015°16'0 0.0
2016-Aug-14 10:34N 38°13' E 015°16'0 0.0
2016-Aug-14 09:34N 38°13' E 015°16'0 0.0
2016-Aug-14 08:33N 38°13' E 015°16'0 0.0
2016-Aug-14 07:34N 38°13' E 015°16'0 0.0
2016-Aug-14 06:34N 38°13' E 015°16'0 0.0
2016-Aug-14 04:34N 38°13' E 015°16'0 0.0
2016-Aug-14 03:34N 38°13' E 015°16'0 0.0
2016-Aug-14 02:34N 38°13' E 015°16'0 0.0
2016-Aug-14 01:33N 38°13' E 015°16'0 0.0
2016-Aug-14 00:34N 38°13' E 015°16'0 0.0
2016-Aug-13 23:33N 38°13' E 015°16'0 0.0
2016-Aug-13 22:34N 38°13' E 015°16'0 0.0
2016-Aug-13 21:34N 38°13' E 015°16'0 0.0
2016-Aug-13 20:34N 38°13' E 015°16'0 0.0
2016-Aug-13 19:34N 38°13' E 015°16'0 0.0
2016-Aug-13 18:34N 38°13' E 015°16'0 0.0
2016-Aug-13 17:34N 38°13' E 015°16'0 0.0
2016-Aug-13 16:34N 38°13' E 015°16'0 0.0
2016-Aug-13 15:34N 38°13' E 015°16'0 0.0
2016-Aug-13 14:34N 38°13' E 015°16'  

Dump ship's entire track history